Time;durP1;ratioP1;P1;durP2;ratioP2;P2;SDS_P1;SDS_P2;PMS_P1;PMS_P2;Temp;Humidity;BMP_temperature;BMP_pressure;BME280_temperature;BME280_humidity;BME280_pressure;Samples;Min_cycle;Max_cycle;Signal;HPM_P1;HPM_P2
2022/11/01 00:00:07;;;;;;;4.63;3.58;;;15.70;99.90;;;;;;5065610;28;20030;-40
2022/11/01 00:02:33;;;;;;;6.47;4.00;;;15.70;99.90;;;;;;5077711;28;20028;-38
2022/11/01 00:04:58;;;;;;;5.47;4.00;;;15.70;99.90;;;;;;5065797;28;20376;-40
2022/11/01 00:07:24;;;;;;;9.50;3.88;;;15.70;99.90;;;;;;5077994;28;20032;-40
2022/11/01 00:09:49;;;;;;;4.75;3.47;;;15.70;99.90;;;;;;5064575;28;20055;-38
2022/11/01 00:12:15;;;;;;;6.03;3.92;;;15.70;99.90;;;;;;5075078;28;20034;-40
2022/11/01 00:14:40;;;;;;;9.20;4.88;;;15.70;99.90;;;;;;5066564;28;20048;-39
2022/11/01 00:17:06;;;;;;;5.43;3.92;;;15.80;99.90;;;;;;5072591;28;20024;-36
2022/11/01 00:19:31;;;;;;;7.53;4.38;;;15.80;99.90;;;;;;5070903;28;20021;-36
2022/11/01 00:21:57;;;;;;;7.95;4.30;;;15.90;99.90;;;;;;5069522;28;20127;-39
2022/11/01 00:24:23;;;;;;;10.38;4.25;;;15.90;99.90;;;;;;5073144;28;20098;-39
2022/11/01 00:26:49;;;;;;;8.60;4.35;;;16.00;99.90;;;;;;5067213;28;20028;-38
2022/11/01 00:29:15;;;;;;;4.97;3.42;;;16.00;99.90;;;;;;5074710;28;20376;-40
2022/11/01 00:31:41;;;;;;;9.40;4.22;;;16.00;99.90;;;;;;5066637;28;20060;-39
2022/11/01 00:34:07;;;;;;;7.80;4.03;;;16.10;99.90;;;;;;5075827;28;20052;-39
2022/11/01 00:36:33;;;;;;;7.18;4.55;;;16.00;99.90;;;;;;5064743;28;20115;-38
2022/11/01 00:38:59;;;;;;;5.80;3.90;;;16.10;99.90;;;;;;5076990;28;20023;-40
2022/11/01 00:41:25;;;;;;;6.45;4.03;;;16.10;99.90;;;;;;5064720;28;20375;-40
2022/11/01 00:43:53;;;;;;;7.00;3.67;;;16.10;99.90;;;;;;5070037;28;20024;-39
2022/11/01 00:46:19;;;;;;;4.85;3.55;;;16.10;99.90;;;;;;5084920;28;20418;-40
2022/11/01 00:48:44;;;;;;;6.63;4.18;;;16.10;99.90;;;;;;5072575;28;20053;-39
2022/11/01 00:51:10;;;;;;;6.60;3.88;;;16.20;99.90;;;;;;5083859;28;20572;-39
2022/11/01 00:53:35;;;;;;;10.15;4.45;;;16.20;99.90;;;;;;5075357;28;20036;-37
2022/11/01 00:56:03;;;;;;;7.25;4.50;;;16.20;99.90;;;;;;5082348;28;20036;-39
2022/11/01 00:58:28;;;;;;;6.68;4.20;;;16.20;99.90;;;;;;5076105;28;20484;-40
2022/11/01 01:00:54;;;;;;;6.15;4.00;;;16.20;99.90;;;;;;5079871;28;20027;-38
2022/11/01 01:03:20;;;;;;;7.00;3.80;;;16.20;99.90;;;;;;5079617;28;20024;-40
2022/11/01 01:05:48;;;;;;;6.05;4.22;;;16.20;99.90;;;;;;5076089;28;20589;-41
2022/11/01 01:08:14;;;;;;;7.60;4.00;;;16.20;99.90;;;;;;5082034;28;20487;-40
2022/11/01 01:10:39;;;;;;;7.82;3.70;;;16.30;99.90;;;;;;5074415;28;20062;-39
2022/11/01 01:13:05;;;;;;;4.50;3.47;;;16.30;99.90;;;;;;5082724;28;20024;-40
2022/11/01 01:15:30;;;;;;;5.15;3.50;;;16.30;99.90;;;;;;5072728;28;20128;-40
2022/11/01 01:17:56;;;;;;;7.75;3.90;;;16.30;99.90;;;;;;5083315;28;20024;-39
2022/11/01 01:20:22;;;;;;;8.85;3.70;;;16.40;99.90;;;;;;5071719;28;20032;-38
2022/11/01 01:22:48;;;;;;;6.72;3.85;;;16.40;99.90;;;;;;5084392;28;20156;-40
2022/11/01 01:25:14;;;;;;;9.05;4.40;;;16.40;99.90;;;;;;5070805;28;20463;-40
2022/11/01 01:27:40;;;;;;;8.73;4.68;;;16.40;99.90;;;;;;5084634;28;20024;-40
2022/11/01 01:30:09;;;;;;;9.02;5.30;;;16.50;99.90;;;;;;5071973;28;20028;-38
2022/11/01 01:32:34;;;;;;;5.95;3.95;;;16.50;99.90;;;;;;5064102;28;20054;-38
2022/11/01 01:35:00;;;;;;;5.65;4.15;;;16.60;99.90;;;;;;5073942;28;20390;-40
2022/11/01 01:37:26;;;;;;;8.77;3.97;;;16.60;99.90;;;;;;5066382;28;20112;-40
2022/11/01 01:39:51;;;;;;;6.57;4.15;;;16.60;99.90;;;;;;5070244;28;20024;-39
2022/11/01 01:42:37;;;;;;;5.28;3.78;;;16.60;99.90;;;;;;5068663;28;20020;-40
2022/11/01 01:45:13;;;;;;;6.07;4.07;;;16.60;99.90;;;;;;5071497;28;20055;-40
2022/11/01 01:47:40;;;;;;;5.10;4.00;;;16.60;99.90;;;;;;5067124;28;20370;-39
2022/11/01 01:50:38;;;;;;;4.47;3.50;;;16.60;99.90;;;;;;5069641;28;20486;-38
2022/11/01 01:53:07;;;;;;;5.80;3.28;;;16.60;99.90;;;;;;5045565;28;20872;-39
2022/11/01 01:55:37;;;;;;;4.50;3.35;;;16.60;99.90;;;;;;5072563;28;20047;-38
2022/11/01 01:58:03;;;;;;;7.65;4.20;;;16.50;99.90;;;;;;5067318;28;20043;-39
2022/11/01 02:00:29;;;;;;;7.13;3.75;;;16.50;99.90;;;;;;5069370;28;20101;-40
2022/11/01 02:02:54;;;;;;;6.85;3.88;;;16.50;99.90;;;;;;5069816;28;20028;-39
2022/11/01 02:05:29;;;;;;;9.77;3.92;;;16.60;99.90;;;;;;5066763;28;20471;-36
2022/11/01 02:07:56;;;;;;;6.65;3.70;;;16.50;99.90;;;;;;5070316;28;20025;-40
2022/11/01 02:10:22;;;;;;;6.53;3.70;;;16.50;99.90;;;;;;5066137;28;20119;-40
2022/11/01 02:12:48;;;;;;;6.20;4.28;;;16.50;99.90;;;;;;5070017;28;20020;-39
2022/11/01 02:15:16;;;;;;;5.90;3.47;;;16.50;99.90;;;;;;5064298;28;20039;-38
2022/11/01 02:17:52;;;;;;;5.35;3.53;;;16.50;99.90;;;;;;5075714;28;20040;-38
2022/11/01 02:20:51;;;;;;;6.45;3.45;;;16.50;99.90;;;;;;5064481;28;20475;-40
2022/11/01 02:23:23;;;;;;;8.73;3.65;;;16.50;99.90;;;;;;5074303;28;20110;-39
2022/11/01 02:26:20;;;;;;;8.50;4.43;;;16.50;99.90;;;;;;5081634;28;20334;-38
2022/11/01 02:29:12;;;;;;;5.72;3.50;;;16.50;99.90;;;;;;5077459;28;20035;-38
2022/11/01 02:32:15;;;;;;;4.90;3.50;;;16.50;99.90;;;;;;5075379;28;20036;-40
2022/11/01 02:35:02;;;;;;;3.75;2.75;;;16.50;99.90;;;;;;5063188;28;20640;-41
2022/11/01 02:37:54;;;;;;;7.80;3.45;;;16.40;99.90;;;;;;5074779;28;20043;-39
2022/11/01 02:40:33;;;;;;;5.60;3.50;;;16.50;99.90;;;;;;5063215;28;20486;-39
2022/11/01 02:43:03;;;;;;;6.65;3.50;;;16.50;99.90;;;;;;5070366;28;20024;-39
2022/11/01 02:45:41;;;;;;;5.60;3.63;;;16.50;99.90;;;;;;5083621;28;20063;-42
2022/11/01 02:48:07;;;;;;;7.20;4.07;;;16.60;99.90;;;;;;5070539;28;20106;-36
2022/11/01 02:50:41;;;;;;;5.55;3.38;;;16.60;99.90;;;;;;5083184;28;20024;-39
2022/11/01 02:53:06;;;;;;;5.82;3.15;;;16.70;99.90;;;;;;5070460;28;20025;-40
2022/11/01 02:55:32;;;;;;;5.50;3.55;;;16.70;99.90;;;;;;5083373;28;20498;-38
2022/11/01 02:58:21;;;;;;;6.15;3.30;;;16.70;99.90;;;;;;5071360;28;20082;-40
2022/11/01 03:00:46;;;;;;;4.97;3.17;;;16.80;99.90;;;;;;5063286;28;20052;-40
2022/11/01 03:03:31;;;;;;;5.18;3.17;;;16.80;99.90;;;;;;5074718;28;20051;-38
2022/11/01 03:05:57;;;;;;;5.10;3.53;;;16.80;99.90;;;;;;5063149;28;20028;-39
2022/11/01 03:08:34;;;;;;;6.82;3.45;;;16.80;99.90;;;;;;5074835;28;20566;-38
2022/11/01 03:11:21;;;;;;;4.60;3.20;;;16.80;99.90;;;;;;5062346;28;20025;-38
2022/11/01 03:14:13;;;;;;;5.72;3.50;;;16.80;99.90;;;;;;5075214;28;20054;-40
2022/11/01 03:16:46;;;;;;;7.70;3.88;;;16.80;99.90;;;;;;5062867;28;20103;-40
2022/11/01 03:19:41;;;;;;;6.60;3.40;;;16.80;99.90;;;;;;5073439;28;20581;-39
2022/11/01 03:22:17;;;;;;;6.63;3.60;;;16.80;99.90;;;;;;5063458;28;20037;-36
2022/11/01 03:24:44;;;;;;;5.43;2.92;;;16.80;99.90;;;;;;5073322;28;20028;-36
2022/11/01 03:27:23;;;;;;;5.00;3.38;;;16.80;99.90;;;;;;5062477;28;20026;-39
2022/11/01 03:29:57;;;;;;;5.55;3.15;;;16.80;99.90;;;;;;5073592;28;20029;-39
2022/11/01 03:32:29;;;;;;;4.03;2.80;;;16.90;99.90;;;;;;5062189;28;20041;-39
2022/11/01 03:34:56;;;;;;;4.57;2.97;;;16.90;99.90;;;;;;5073749;28;20045;-39
2022/11/01 03:37:22;;;;;;;5.03;2.60;;;16.90;99.90;;;;;;5062803;28;20059;-39
2022/11/01 03:39:50;;;;;;;5.18;3.30;;;16.90;99.90;;;;;;5074657;28;20179;-39
2022/11/01 03:42:20;;;;;;;5.70;3.17;;;16.90;99.90;;;;;;5062512;28;20037;-38
2022/11/01 03:45:08;;;;;;;4.25;2.58;;;16.90;99.90;;;;;;5076212;28;20692;-41
2022/11/01 03:47:34;;;;;;;3.92;2.90;;;16.90;99.90;;;;;;5065039;28;20025;-40
2022/11/01 03:50:20;;;;;;;3.88;2.90;;;17.00;99.90;;;;;;5078476;28;20409;-39
2022/11/01 03:52:46;;;;;;;6.70;3.75;;;16.90;99.90;;;;;;5065238;28;20101;-40
2022/11/01 03:55:19;;;;;;;3.33;2.83;;;16.90;99.90;;;;;;5077779;28;20043;-38
2022/11/01 03:57:46;;;;;;;6.20;3.00;;;16.90;99.90;;;;;;5065896;28;20078;-39
2022/11/01 04:00:21;;;;;;;3.50;2.80;;;17.00;99.90;;;;;;5077353;28;20028;-39
2022/11/01 04:02:48;;;;;;;5.10;3.35;;;17.00;99.90;;;;;;5065949;28;20032;-40
2022/11/01 04:05:14;;;;;;;5.72;2.97;;;17.00;99.90;;;;;;5076643;28;20055;-38
2022/11/01 04:07:42;;;;;;;5.38;2.95;;;17.10;99.90;;;;;;5065759;28;20024;-40
2022/11/01 04:10:08;;;;;;;6.07;2.83;;;17.10;99.90;;;;;;5074685;28;20039;-38
2022/11/01 04:12:33;;;;;;;5.72;3.03;;;17.10;99.90;;;;;;5069156;28;20115;-40
2022/11/01 04:20:33;;;;;;;4.32;2.83;;;17.10;99.90;;;;;;5073880;28;20151;-40
2022/11/01 04:23:04;;;;;;;9.65;2.67;;;17.10;99.90;;;;;;5067769;28;20025;-38
2022/11/01 04:25:30;;;;;;;7.07;2.95;;;17.10;99.90;;;;;;5073288;28;20024;-38
2022/11/01 04:27:56;;;;;;;5.05;2.63;;;17.10;99.90;;;;;;5068982;28;20487;-39
2022/11/01 04:30:23;;;;;;;5.28;2.60;;;17.10;99.90;;;;;;5070915;28;20044;-40
2022/11/01 04:32:49;;;;;;;2.63;2.20;;;17.10;99.90;;;;;;5071606;28;20047;-38
2022/11/01 04:35:15;;;;;;;4.60;2.20;;;17.10;99.90;;;;;;5067439;28;20040;-38
2022/11/01 04:37:40;;;;;;;2.28;1.50;;;17.00;99.90;;;;;;5074902;28;20024;-39
2022/11/01 04:40:06;;;;;;;3.25;1.88;;;16.90;99.90;;;;;;5068053;28;20357;-40
2022/11/01 04:42:36;;;;;;;4.57;1.50;;;16.80;99.90;;;;;;5073643;28;20114;-39
2022/11/01 04:45:04;;;;;;;3.45;1.10;;;16.70;99.90;;;;;;5083618;28;20560;-39
2022/11/01 04:47:30;;;;;;;1.27;0.90;;;16.60;99.90;;;;;;5073587;28;20449;-40
2022/11/01 04:49:55;;;;;;;1.95;0.70;;;16.50;99.90;;;;;;5083807;28;20741;-40
2022/11/01 04:52:21;;;;;;;1.00;0.70;;;16.40;99.90;;;;;;5071704;28;20046;-39
2022/11/01 04:54:47;;;;;;;1.25;1.00;;;16.40;99.90;;;;;;5085175;28;20044;-39
2022/11/01 04:57:22;;;;;;;2.20;0.52;;;16.30;99.90;;;;;;5070758;28;20686;-39
2022/11/01 04:59:54;;;;;;;1.67;0.82;;;16.20;99.90;;;;;;5084862;28;20027;-38
2022/11/01 05:02:21;;;;;;;;;;;16.10;99.90;;;;;;5072101;28;20086;-37
2022/11/01 05:04:46;;;;;;;1.45;0.50;;;16.10;99.90;;;;;;5084097;28;19908;-40
2022/11/01 05:07:13;;;;;;;1.42;0.95;;;16.00;99.90;;;;;;5073245;28;20028;-39
2022/11/01 05:09:39;;;;;;;2.55;0.80;;;15.90;99.90;;;;;;5083214;28;20552;-40
2022/11/01 05:12:05;;;;;;;1.70;0.68;;;15.90;99.90;;;;;;5073783;28;20032;-39
2022/11/01 05:14:30;;;;;;;1.20;0.80;;;15.80;99.90;;;;;;5080460;28;20040;-39
2022/11/01 05:16:56;;;;;;;1.33;1.15;;;15.80;99.90;;;;;;5079132;28;20035;-39
2022/11/01 05:19:22;;;;;;;1.10;0.60;;;15.80;99.90;;;;;;5076701;28;20046;-39
2022/11/01 05:21:48;;;;;;;2.15;0.73;;;15.70;99.90;;;;;;5081059;28;20020;-39
2022/11/01 05:24:14;;;;;;;1.05;0.70;;;15.60;99.90;;;;;;5073259;28;20475;-39
2022/11/01 05:26:39;;;;;;;2.30;0.77;;;15.60;99.90;;;;;;5082852;28;20073;-38
2022/11/01 05:29:05;;;;;;;2.22;0.68;;;15.60;99.90;;;;;;5072698;28;20024;-39
2022/11/01 05:31:31;;;;;;;1.13;0.50;;;15.50;99.90;;;;;;5082254;28;20024;-39
2022/11/01 05:33:56;;;;;;;1.15;0.60;;;15.50;99.90;;;;;;5073020;28;20048;-39
2022/11/01 05:36:22;;;;;;;2.15;0.70;;;15.40;99.90;;;;;;5083986;28;20036;-39
2022/11/01 05:38:47;;;;;;;2.03;0.70;;;15.40;99.90;;;;;;5070726;28;20144;-40
2022/11/01 05:41:13;;;;;;;2.67;0.70;;;15.30;99.90;;;;;;5083822;28;20097;-39
2022/11/01 05:43:38;;;;;;;1.50;0.80;;;15.30;99.90;;;;;;5070958;28;20031;-40
2022/11/01 05:46:05;;;;;;;2.22;0.80;;;15.20;99.90;;;;;;5083935;28;20028;-39
2022/11/01 05:48:31;;;;;;;2.97;0.90;;;15.20;99.90;;;;;;5073636;28;20024;-42
2022/11/01 05:50:57;;;;;;;1.67;0.60;;;15.30;99.90;;;;;;5081653;28;20070;-40
2022/11/01 05:53:22;;;;;;;4.28;0.90;;;15.30;99.90;;;;;;5075190;28;20028;-40
2022/11/01 05:55:48;;;;;;;3.30;0.70;;;15.30;99.90;;;;;;5079031;28;20036;-39
2022/11/01 05:58:13;;;;;;;2.05;0.63;;;15.30;99.90;;;;;;5078304;28;20107;-38
2022/11/01 06:00:39;;;;;;;1.75;0.70;;;15.30;99.90;;;;;;5075674;28;20123;-40
2022/11/01 06:03:06;;;;;;;2.10;0.77;;;15.30;99.90;;;;;;5081668;28;20532;-40
2022/11/01 06:05:32;;;;;;;2.40;0.70;;;15.30;99.90;;;;;;5073535;28;20028;-39
2022/11/01 06:08:00;;;;;;;3.40;0.90;;;15.30;99.90;;;;;;5081428;28;20077;-40
2022/11/01 06:10:26;;;;;;;1.33;0.82;;;15.20;99.90;;;;;;5072149;28;20130;-39
2022/11/01 06:12:52;;;;;;;2.88;0.82;;;15.20;99.90;;;;;;5082704;28;20908;-39
2022/11/01 06:15:17;;;;;;;2.17;0.75;;;15.10;99.90;;;;;;5073285;28;20044;-39
2022/11/01 06:17:43;;;;;;;4.13;0.90;;;15.10;99.90;;;;;;5063334;28;20433;-36
2022/11/01 06:20:08;;;;;;;3.33;0.90;;;15.00;99.90;;;;;;5075234;28;20081;-39
2022/11/01 06:22:38;;;;;;;1.65;0.70;;;15.00;99.90;;;;;;5062693;28;20058;-40
2022/11/01 06:25:05;;;;;;;1.10;0.75;;;14.90;99.90;;;;;;5075949;28;20581;-40
2022/11/01 06:27:31;;;;;;;1.83;0.65;;;14.90;99.90;;;;;;5062025;28;20078;-40
2022/11/01 06:29:56;;;;;;;2.88;0.90;;;14.80;99.90;;;;;;5073704;28;20023;-39
2022/11/01 06:32:22;;;;;;;1.60;0.77;;;14.80;99.90;;;;;;5064655;28;20036;-39
2022/11/01 06:34:47;;;;;;;4.00;0.98;;;14.70;99.90;;;;;;5070316;28;20451;-37
2022/11/01 06:37:13;;;;;;;2.67;0.93;;;14.70;99.90;;;;;;5067617;28;20581;-39
2022/11/01 06:39:38;;;;;;;3.80;0.90;;;14.80;99.90;;;;;;5067901;28;20463;-40
2022/11/01 06:42:04;;;;;;;4.55;1.27;;;14.80;99.90;;;;;;5069602;28;20021;-39
2022/11/01 06:44:30;;;;;;;3.83;0.75;;;14.80;99.90;;;;;;5064508;28;20086;-40
2022/11/01 06:46:55;;;;;;;1.67;0.57;;;14.70;99.90;;;;;;5073421;28;20077;-40
2022/11/01 06:49:21;;;;;;;2.15;0.90;;;14.70;99.90;;;;;;5056647;28;21066;-36
2022/11/01 06:51:47;;;;;;;1.13;0.60;;;14.70;99.90;;;;;;5062431;28;20021;-38
2022/11/01 06:54:12;;;;;;;4.22;0.68;;;14.60;99.90;;;;;;5059859;28;20558;-39
2022/11/01 06:56:38;;;;;;;3.50;1.40;;;14.60;99.90;;;;;;5061919;28;20491;-39
2022/11/01 06:59:04;;;;;;;4.90;1.50;;;14.60;99.90;;;;;;5078116;28;20139;-39
2022/11/01 07:01:29;;;;;;;3.88;1.10;;;14.60;99.90;;;;;;5072580;28;20024;-36
2022/11/01 07:03:55;;;;;;;2.75;1.10;;;14.50;99.90;;;;;;5076006;28;20463;-38
2022/11/01 07:06:23;;;;;;;4.90;1.00;;;14.50;99.90;;;;;;5063501;28;20029;-40
2022/11/01 07:08:48;;;;;;;2.92;0.82;;;14.50;99.90;;;;;;5079750;28;20028;-37
2022/11/01 07:11:14;;;;;;;7.75;0.90;;;14.40;99.90;;;;;;5065353;28;20016;-37
2022/11/01 07:13:40;;;;;;;2.53;0.90;;;14.40;99.90;;;;;;5063005;28;20150;-38
2022/11/01 07:16:06;;;;;;;5.78;1.13;;;14.40;99.90;;;;;;5068312;28;20024;-39
2022/11/01 07:18:31;;;;;;;4.40;0.90;;;14.40;99.90;;;;;;5072869;28;20855;-39
2022/11/01 07:21:00;;;;;;;4.13;1.10;;;14.40;99.90;;;;;;5078032;28;20024;-39
2022/11/01 07:23:28;;;;;;;4.30;1.27;;;14.40;99.90;;;;;;5070262;28;20024;-39
2022/11/01 07:25:53;;;;;;;7.38;1.60;;;14.40;99.90;;;;;;5063289;28;20857;-39
2022/11/01 07:28:19;;;;;;;4.47;1.05;;;14.40;99.90;;;;;;5072951;28;20029;-37
2022/11/01 07:30:52;;;;;;;6.35;1.30;;;14.30;99.90;;;;;;5073678;28;20033;-38
2022/11/01 07:33:18;;;;;;;4.75;1.67;;;14.30;99.90;;;;;;5075331;28;20087;-40
2022/11/01 07:35:44;;;;;;;5.20;2.20;;;14.40;99.90;;;;;;5075538;28;20123;-35
2022/11/01 07:38:10;;;;;;;6.03;1.20;;;14.30;99.90;;;;;;5066780;28;20693;-40
2022/11/01 07:40:36;;;;;;;5.50;1.20;;;14.30;99.90;;;;;;5081916;28;20042;-40
2022/11/01 07:43:03;;;;;;;4.63;1.20;;;14.40;99.90;;;;;;5064686;28;20031;-36
2022/11/01 07:45:31;;;;;;;4.20;1.17;;;14.40;99.90;;;;;;5071894;28;20028;-39
2022/11/01 07:48:05;;;;;;;4.20;1.38;;;14.40;99.90;;;;;;5072263;28;20719;-39
2022/11/01 07:50:32;;;;;;;4.30;1.38;;;14.40;99.90;;;;;;5070533;28;20059;-39
2022/11/01 07:53:12;;;;;;;5.82;1.10;;;14.40;99.90;;;;;;5075843;28;20046;-38
2022/11/01 07:55:38;;;;;;;5.35;1.38;;;14.40;99.90;;;;;;5071851;28;20032;-38
2022/11/01 07:58:05;;;;;;;6.30;1.30;;;14.40;99.90;;;;;;5070970;28;20030;-38
2022/11/01 08:00:31;;;;;;;6.20;1.25;;;14.40;99.90;;;;;;5069901;28;20040;-39
2022/11/01 08:03:05;;;;;;;8.02;1.50;;;14.50;99.90;;;;;;5070454;28;20024;-39
2022/11/01 08:05:34;;;;;;;5.82;1.75;;;14.50;99.90;;;;;;5076726;28;20134;-40
2022/11/01 08:08:00;;;;;;;7.90;1.15;;;14.40;99.90;;;;;;5073910;28;20020;-40
2022/11/01 08:10:26;;;;;;;5.22;1.70;;;14.50;99.90;;;;;;5064934;28;20430;-40
2022/11/01 08:12:51;;;;;;;5.47;1.10;;;14.50;99.90;;;;;;5065427;28;20017;-41
2022/11/01 08:15:17;;;;;;;6.38;1.27;;;14.50;99.90;;;;;;5066859;28;20036;-41
2022/11/01 08:17:45;;;;;;;7.63;1.42;;;14.50;99.90;;;;;;5067804;28;20834;-40
2022/11/01 08:20:11;;;;;;;7.20;1.65;;;14.50;99.90;;;;;;5061081;28;20562;-38
2022/11/01 08:22:39;;;;;;;5.97;1.50;;;14.50;99.90;;;;;;5063526;28;20032;-39
2022/11/01 08:25:06;;;;;;;9.20;1.80;;;14.50;99.90;;;;;;5064498;28;20034;-38
2022/11/01 08:27:31;;;;;;;7.60;1.70;;;14.50;99.90;;;;;;5067343;28;20020;-37
2022/11/01 08:29:57;;;;;;;5.80;1.50;;;14.60;99.90;;;;;;5064182;28;20089;-39
2022/11/01 08:32:22;;;;;;;5.78;1.50;;;14.50;99.90;;;;;;5062449;28;20044;-41
2022/11/01 08:34:50;;;;;;;5.68;1.55;;;14.60;99.90;;;;;;5070403;28;20028;-39
2022/11/01 08:37:17;;;;;;;5.55;1.58;;;14.60;99.90;;;;;;5081959;28;20928;-40
2022/11/01 08:39:43;;;;;;;7.00;1.63;;;14.60;99.90;;;;;;5070024;28;20048;-37
2022/11/01 08:42:09;;;;;;;4.88;1.40;;;14.60;99.90;;;;;;5065941;28;20032;-40
2022/11/01 08:44:37;;;;;;;5.35;1.77;;;14.60;99.90;;;;;;5066244;28;20468;-39
2022/11/01 08:47:03;;;;;;;5.70;2.10;;;14.70;99.90;;;;;;5062186;28;20032;-39
2022/11/01 08:49:28;;;;;;;7.97;1.38;;;14.70;99.90;;;;;;5069963;28;20139;-40
2022/11/01 08:51:54;;;;;;;8.93;1.95;;;14.70;99.90;;;;;;5065602;28;20016;-41
2022/11/01 08:54:20;;;;;;;7.07;1.80;;;14.80;99.90;;;;;;5070160;28;20048;-37
2022/11/01 08:56:45;;;;;;;10.45;2.55;;;14.80;99.90;;;;;;5071338;28;20016;-37
2022/11/01 08:59:11;;;;;;;4.70;1.42;;;14.90;99.90;;;;;;5077017;28;20039;-39
2022/11/01 09:01:37;;;;;;;5.40;1.65;;;15.00;99.90;;;;;;5062166;28;20722;-40
2022/11/01 09:04:06;;;;;;;8.50;1.80;;;15.00;99.90;;;;;;5075453;28;20475;-39
2022/11/01 09:06:32;;;;;;;5.45;1.75;;;15.10;99.90;;;;;;5064935;28;20029;-40
2022/11/01 09:08:59;;;;;;;9.02;1.60;;;15.10;99.90;;;;;;5076540;28;20193;-38
2022/11/01 09:11:24;;;;;;;9.63;1.95;;;15.10;99.90;;;;;;5067247;28;20035;-39
2022/11/01 09:13:52;;;;;;;8.95;2.33;;;15.10;99.90;;;;;;5061980;28;20020;-40
2022/11/01 09:16:18;;;;;;;6.70;2.17;;;15.10;99.90;;;;;;5078008;28;20055;-40
2022/11/01 09:18:43;;;;;;;5.90;1.60;;;15.10;99.90;;;;;;5081866;28;20110;-39
2022/11/01 09:21:09;;;;;;;10.38;1.90;;;15.10;99.90;;;;;;5067718;28;20658;-41
2022/11/01 09:23:35;;;;;;;8.15;1.80;;;15.10;99.90;;;;;;5074856;28;20130;-41
2022/11/01 09:26:07;;;;;;;8.98;2.45;;;15.10;99.90;;;;;;5077310;28;20028;-38
2022/11/01 09:28:33;;;;;;;7.13;1.92;;;15.10;99.90;;;;;;5061783;28;20024;-40
2022/11/01 09:31:07;;;;;;;5.95;1.77;;;15.10;99.90;;;;;;5066248;28;20031;-40
2022/11/01 09:33:34;;;;;;;11.18;2.47;;;15.10;99.90;;;;;;5061114;28;20048;-40
2022/11/01 09:36:00;;;;;;;7.38;1.67;;;15.10;99.90;;;;;;5069000;28;20482;-39
2022/11/01 09:38:26;;;;;;;7.97;1.63;;;15.10;99.90;;;;;;5062622;28;20032;-40
2022/11/01 09:40:58;;;;;;;7.13;1.60;;;15.10;99.90;;;;;;5061701;28;20028;-41
2022/11/01 09:43:25;;;;;;;8.70;2.22;;;15.20;99.90;;;;;;5060964;28;20471;-37
2022/11/01 09:45:57;;;;;;;7.63;1.70;;;15.20;99.90;;;;;;5066388;28;20016;-38
2022/11/01 09:48:28;;;;;;;8.95;1.50;;;15.20;99.90;;;;;;5060150;28;20032;-36
2022/11/01 09:50:54;;;;;;;9.23;1.67;;;15.30;99.90;;;;;;5063539;28;20032;-38
2022/11/01 09:53:24;;;;;;;7.05;2.30;;;15.30;99.90;;;;;;5062595;28;20025;-40
2022/11/01 09:56:11;;;;;;;7.28;1.55;;;15.30;99.90;;;;;;5061222;28;20479;-39
2022/11/01 09:58:50;;;;;;;11.15;2.10;;;15.30;99.90;;;;;;5066720;28;20286;-38
2022/11/01 10:01:46;;;;;;;8.65;2.10;;;15.30;99.90;;;;;;5066712;28;20043;-40
2022/11/01 10:04:26;;;;;;;7.68;1.90;;;15.30;99.90;;;;;;5060179;28;20763;-38
2022/11/01 10:07:10;;;;;;;4.60;1.67;;;15.40;99.90;;;;;;5071334;28;20027;-38
2022/11/01 10:10:00;;;;;;;6.82;2.00;;;15.40;99.90;;;;;;5065428;28;20131;-41
2022/11/01 10:12:54;;;;;;;9.05;2.40;;;15.40;99.90;;;;;;5075372;28;20077;-38
2022/11/01 10:15:37;;;;;;;7.47;2.03;;;15.40;99.90;;;;;;5071314;28;20046;-41
2022/11/01 10:18:14;;;;;;;;;;;15.40;99.90;;;;;;5075515;28;20028;-39
2022/11/01 10:20:41;;;;;;;8.48;1.55;;;15.50;99.90;;;;;;5073994;28;19912;-39
2022/11/01 10:23:07;;;;;;;6.57;1.60;;;15.50;99.90;;;;;;5068235;28;20035;-39
2022/11/01 10:25:37;;;;;;;6.85;1.67;;;15.50;99.90;;;;;;5072287;28;20039;-38
2022/11/01 10:28:12;;;;;;;6.28;1.67;;;15.50;99.90;;;;;;5073588;28;20024;-38
2022/11/01 10:30:45;;;;;;;7.70;1.60;;;15.50;99.90;;;;;;5073493;28;20036;-39
2022/11/01 10:33:32;;;;;;;8.60;1.70;;;15.50;99.90;;;;;;5068225;28;20496;-39
2022/11/01 10:36:05;;;;;;;6.75;2.08;;;15.50;99.90;;;;;;5072614;28;20143;-36
2022/11/01 10:38:36;;;;;;;8.60;1.73;;;15.60;99.90;;;;;;5073115;28;20024;-40
2022/11/01 10:41:08;;;;;;;6.88;1.80;;;15.60;99.90;;;;;;5059879;28;20392;-40
2022/11/01 10:43:39;;;;;;;7.22;2.38;;;15.70;99.90;;;;;;5060505;28;20035;-40
2022/11/01 10:46:08;;;;;;;6.97;2.22;;;15.70;99.90;;;;;;5060850;28;20082;-40
2022/11/01 10:48:40;;;;;;;7.40;1.95;;;15.60;99.90;;;;;;5071557;28;20153;-40
2022/11/01 10:51:07;;;;;;;8.35;1.80;;;15.60;99.90;;;;;;5061328;28;20037;-40
2022/11/01 10:53:38;;;;;;;8.88;2.10;;;15.70;99.90;;;;;;5065597;28;20771;-40
2022/11/01 10:56:08;;;;;;;6.68;2.13;;;15.70;99.90;;;;;;5071972;28;20051;-40
2022/11/01 10:58:39;;;;;;;8.45;1.58;;;15.70;99.90;;;;;;5074873;28;20029;-40
2022/11/01 11:01:08;;;;;;;9.45;2.33;;;15.70;99.90;;;;;;5068756;28;20147;-39
2022/11/01 11:03:34;;;;;;;6.75;1.63;;;15.80;99.90;;;;;;5067711;28;20470;-39
2022/11/01 11:06:07;;;;;;;8.05;2.10;;;15.70;99.90;;;;;;5068029;28;20025;-35
2022/11/01 11:08:35;;;;;;;7.78;2.30;;;15.70;99.90;;;;;;5067516;28;20062;-38
2022/11/01 11:11:09;;;;;;;10.27;2.30;;;15.80;99.90;;;;;;5068370;28;20604;-36
2022/11/01 11:13:39;;;;;;;8.35;1.90;;;15.90;99.90;;;;;;5069683;28;20029;-39
2022/11/01 11:16:07;;;;;;;7.43;1.80;;;15.90;99.90;;;;;;5064201;28;20032;-39
2022/11/01 11:18:37;;;;;;;7.13;1.65;;;15.90;99.90;;;;;;5069033;28;20070;-41
2022/11/01 11:21:11;;;;;;;5.78;1.67;;;15.90;99.90;;;;;;5069503;28;20036;-37
2022/11/01 11:23:45;;;;;;;9.70;1.98;;;16.00;99.90;;;;;;5066531;28;20059;-39
2022/11/01 11:26:16;;;;;;;6.97;1.60;;;16.00;99.90;;;;;;5073399;28;20028;-39
2022/11/01 11:28:46;;;;;;;7.57;1.70;;;16.00;99.90;;;;;;5065483;28;20531;-40
2022/11/01 11:31:23;;;;;;;9.57;1.60;;;16.00;99.90;;;;;;5066997;28;21405;-36
2022/11/01 11:34:02;;;;;;;8.98;1.85;;;16.10;99.90;;;;;;5066994;28;20052;-40
2022/11/01 11:36:34;;;;;;;5.93;1.58;;;16.10;99.90;;;;;;5070741;28;20043;-39
2022/11/01 11:39:00;;;;;;;5.10;1.60;;;16.10;99.90;;;;;;5069677;28;20027;-40
2022/11/01 11:41:38;;;;;;;7.82;1.60;;;16.20;99.90;;;;;;5074433;28;20577;-39
2022/11/01 11:44:32;;;;;;;4.90;1.55;;;16.20;99.90;;;;;;5073360;28;20120;-37
2022/11/01 11:46:58;;;;;;;4.50;1.45;;;16.20;99.90;;;;;;5073912;28;20463;-40
2022/11/01 11:49:27;;;;;;;8.60;1.90;;;16.30;99.90;;;;;;5075722;28;20031;-38
2022/11/01 11:51:53;;;;;;;7.47;1.58;;;16.30;99.90;;;;;;5067569;28;20032;-38
2022/11/01 11:54:18;;;;;;;5.10;1.42;;;16.30;99.90;;;;;;5062870;28;20029;-36
2022/11/01 11:56:45;;;;;;;6.90;1.45;;;16.40;99.90;;;;;;5065658;28;20040;-39
2022/11/01 11:59:37;;;;;;;5.78;2.03;;;16.40;99.90;;;;;;5081438;28;20042;-39
2022/11/01 12:02:13;;;;;;;5.93;1.50;;;16.40;99.90;;;;;;5064194;28;20033;-40
2022/11/01 12:04:44;;;;;;;6.05;1.80;;;16.40;99.90;;;;;;5079928;28;20107;-36
2022/11/01 12:07:27;;;;;;;9.25;2.85;;;16.40;99.90;;;;;;5070472;28;20056;-39
2022/11/01 12:09:54;;;;;;;5.90;1.50;;;16.40;99.90;;;;;;5063638;28;20032;-38
2022/11/01 12:12:26;;;;;;;10.55;2.22;;;16.40;99.90;;;;;;5064782;28;20025;-38
2022/11/01 12:14:55;;;;;;;4.97;1.50;;;16.50;99.90;;;;;;5078989;28;20085;-39
2022/11/01 12:17:42;;;;;;;4.28;1.60;;;16.50;99.90;;;;;;5065160;28;20486;-40
2022/11/01 12:20:11;;;;;;;5.93;1.55;;;16.50;99.90;;;;;;5066996;28;20032;-39
2022/11/01 12:22:42;;;;;;;5.07;1.40;;;16.50;99.90;;;;;;5074025;28;20479;-40
2022/11/01 12:25:13;;;;;;;5.43;1.65;;;16.60;99.90;;;;;;5069901;28;20029;-39
2022/11/01 12:27:46;;;;;;;5.78;1.70;;;16.60;99.90;;;;;;5069898;28;20048;-41
2022/11/01 12:30:18;;;;;;;5.18;1.55;;;16.60;99.90;;;;;;5070090;28;20133;-40
2022/11/01 12:32:50;;;;;;;;;;;16.60;99.90;;;;;;5071706;28;20118;-40
2022/11/01 12:35:43;;;;;;;5.82;1.80;;;16.70;99.90;;;;;;5071430;28;19959;-40
2022/11/01 12:38:16;;;;;;;;;;;16.70;99.90;;;;;;5063661;28;20055;-41
2022/11/01 12:40:44;;;;;;;4.70;1.50;;;16.70;99.90;;;;;;5071247;28;20387;-40
2022/11/01 12:43:22;;;;;;;4.60;1.48;;;16.70;99.90;;;;;;5070106;28;20052;-39
2022/11/01 12:45:54;;;;;;;4.95;1.20;;;16.70;99.90;;;;;;5072804;28;20039;-38
2022/11/01 12:48:28;;;;;;;4.72;1.25;;;16.80;99.90;;;;;;5071308;28;20043;-40
2022/11/01 12:50:56;;;;;;;5.57;2.00;;;16.80;99.90;;;;;;5071195;28;20089;-40
2022/11/01 12:53:36;;;;;;;4.55;1.50;;;16.80;99.90;;;;;;5073087;28;20483;-40
2022/11/01 12:56:02;;;;;;;6.47;1.40;;;16.80;99.90;;;;;;5068741;28;20821;-39
2022/11/01 12:58:27;;;;;;;7.00;1.42;;;16.80;99.90;;;;;;5070616;28;20040;-40
2022/11/01 13:01:12;;;;;;;5.07;1.80;;;16.90;99.90;;;;;;5072359;28;20463;-35
2022/11/01 13:03:47;;;;;;;7.38;1.40;;;16.90;99.90;;;;;;5067257;28;20136;-40
2022/11/01 13:06:35;;;;;;;5.20;1.30;;;16.90;99.90;;;;;;5075877;28;20131;-40